createdAt,value
2022-10-18T00:00:59.569Z,20.83
2022-10-18T00:03:27.534Z,19.10
2022-10-18T00:05:57.072Z,18.55
2022-10-18T00:08:25.607Z,16.65
2022-10-18T00:10:53.775Z,18.35
2022-10-18T00:13:21.889Z,18.70
2022-10-18T00:15:51.329Z,17.90
2022-10-18T00:18:19.749Z,20.40
2022-10-18T00:20:56.710Z,16.88
2022-10-18T00:23:26.715Z,17.25
2022-10-18T00:26:01.178Z,16.88
2022-10-18T00:28:29.119Z,18.25
2022-10-18T00:30:57.116Z,19.10
2022-10-18T00:33:25.066Z,18.13
2022-10-18T00:35:53.015Z,16.55
2022-10-18T00:38:20.940Z,17.65
2022-10-18T00:40:50.154Z,18.10
2022-10-18T00:43:19.723Z,20.08
2022-10-18T00:45:47.642Z,19.98
2022-10-18T00:48:18.032Z,17.65
2022-10-18T00:50:46.498Z,19.05
2022-10-18T00:53:18.397Z,19.20
2022-10-18T00:55:46.777Z,19.60
2022-10-18T00:58:19.269Z,19.65
2022-10-18T01:00:47.378Z,19.23
2022-10-18T01:03:15.378Z,19.70
2022-10-18T01:05:46.351Z,22.33
2022-10-18T01:08:39.791Z,21.35
2022-10-18T01:11:23.536Z,19.27
2022-10-18T01:14:02.493Z,20.40
2022-10-18T01:16:35.938Z,22.10
2022-10-18T01:19:13.128Z,21.10
2022-10-18T01:21:45.945Z,20.15
2022-10-18T01:24:51.875Z,19.23
2022-10-18T01:27:40.405Z,19.58
2022-10-18T01:30:36.342Z,17.48
2022-10-18T01:33:11.917Z,18.35
2022-10-18T01:35:44.896Z,20.33
2022-10-18T01:38:17.173Z,19.00
2022-10-18T01:40:48.879Z,17.85
2022-10-18T01:43:18.828Z,21.17
2022-10-18T01:45:48.707Z,18.30
2022-10-18T01:48:18.311Z,17.63
2022-10-18T01:50:46.238Z,17.48
2022-10-18T01:53:28.799Z,17.75
2022-10-18T01:58:38.975Z,18.90
2022-10-18T02:03:49.663Z,16.55
2022-10-18T02:08:53.665Z,15.45
2022-10-18T02:11:21.775Z,16.48
2022-10-18T02:13:53.497Z,16.30
2022-10-18T02:16:27.142Z,16.77
2022-10-18T02:18:59.826Z,18.17
2022-10-18T02:21:30.682Z,16.60
2022-10-18T02:24:00.209Z,15.57
2022-10-18T02:26:28.202Z,16.67
2022-10-18T02:28:56.427Z,16.92
2022-10-18T02:31:31.006Z,18.25
2022-10-18T02:34:02.035Z,18.30
2022-10-18T02:36:35.720Z,16.45
2022-10-18T02:39:08.824Z,16.60
2022-10-18T02:41:36.918Z,18.52
2022-10-18T02:44:04.935Z,16.40
2022-10-18T02:46:35.351Z,17.13
2022-10-18T02:49:03.362Z,17.00
2022-10-18T02:51:31.403Z,15.35
2022-10-18T02:53:59.370Z,16.30
2022-10-18T02:56:27.293Z,17.40
2022-10-18T02:58:55.372Z,16.73
2022-10-18T03:01:23.370Z,17.48
2022-10-18T03:03:52.735Z,18.02
2022-10-18T03:06:20.677Z,18.73
2022-10-18T03:08:48.559Z,16.77
2022-10-18T03:11:16.406Z,16.95
2022-10-18T03:13:44.294Z,16.85
2022-10-18T03:16:13.039Z,17.08
2022-10-18T03:18:41.331Z,21.70
2022-10-18T03:21:11.142Z,21.50
2022-10-18T03:23:40.016Z,20.30
2022-10-18T03:26:08.030Z,19.35
2022-10-18T03:28:35.939Z,17.77
2022-10-18T03:31:05.025Z,18.23
2022-10-18T03:33:33.751Z,16.48
2022-10-18T03:36:01.825Z,17.50
2022-10-18T03:38:31.123Z,17.38
2022-10-18T03:40:59.022Z,18.83
2022-10-18T03:43:26.935Z,19.25
2022-10-18T03:45:54.769Z,19.80
2022-10-18T03:48:22.941Z,17.88
2022-10-18T03:50:50.941Z,19.77
2022-10-18T03:53:19.018Z,20.95
2022-10-18T03:55:51.896Z,20.42
2022-10-18T03:58:19.872Z,21.05
2022-10-18T04:00:50.871Z,20.25
2022-10-18T04:03:19.403Z,19.42
2022-10-18T04:05:47.970Z,21.20
2022-10-18T04:08:16.738Z,24.55
2022-10-18T04:10:44.822Z,18.48
2022-10-18T04:13:14.130Z,19.08
2022-10-18T04:15:42.019Z,16.02
2022-10-18T04:18:10.044Z,16.83
2022-10-18T04:20:37.951Z,17.00
2022-10-18T04:23:05.854Z,18.63
2022-10-18T04:25:33.810Z,16.83
2022-10-18T04:28:01.736Z,18.98
2022-10-18T04:30:30.974Z,16.63
2022-10-18T04:32:58.838Z,16.90
2022-10-18T04:35:28.317Z,17.55
2022-10-18T04:37:56.202Z,17.98
2022-10-18T04:40:24.059Z,19.67
2022-10-18T04:42:51.961Z,17.38
2022-10-18T04:45:19.817Z,17.77
2022-10-18T04:47:49.093Z,15.55
2022-10-18T04:50:17.165Z,21.52
2022-10-18T04:52:45.173Z,20.38
2022-10-18T04:55:13.281Z,20.83
2022-10-18T04:57:41.215Z,19.42
2022-10-18T05:00:09.630Z,18.45
2022-10-18T05:02:37.527Z,18.13
2022-10-18T05:05:10.247Z,16.73
2022-10-18T05:07:39.693Z,23.48
2022-10-18T05:10:08.294Z,17.85
2022-10-18T05:12:36.175Z,16.65
2022-10-18T05:15:04.294Z,16.70
2022-10-18T05:17:33.013Z,17.50
2022-10-18T05:20:00.904Z,17.35
2022-10-18T05:22:30.357Z,17.17
2022-10-18T05:24:58.449Z,17.63
2022-10-18T05:27:26.453Z,18.02
2022-10-18T05:29:54.324Z,17.00
2022-10-18T05:32:22.387Z,17.67
2022-10-18T05:34:50.240Z,16.95
2022-10-18T05:37:18.790Z,20.20
2022-10-18T05:39:47.972Z,21.00
2022-10-18T05:42:15.897Z,20.88
2022-10-18T05:44:43.810Z,17.80
2022-10-18T05:47:11.693Z,25.10
2022-10-18T05:49:39.589Z,16.95
2022-10-18T05:52:07.468Z,17.30
2022-10-18T05:54:35.423Z,19.30
2022-10-18T05:57:04.816Z,19.42
2022-10-18T05:59:32.701Z,18.92
2022-10-18T06:02:00.632Z,17.08
2022-10-18T06:04:28.545Z,18.05
2022-10-18T06:06:56.417Z,18.77
2022-10-18T06:09:24.302Z,19.58
2022-10-18T06:11:52.218Z,18.58
2022-10-18T06:14:21.483Z,17.60
2022-10-18T06:16:50.502Z,21.13
2022-10-18T06:19:18.559Z,20.55
2022-10-18T06:21:46.511Z,26.23
2022-10-18T06:24:14.390Z,26.48
2022-10-18T06:26:42.320Z,23.38
2022-10-18T06:29:10.265Z,24.48
2022-10-18T06:31:39.547Z,24.90
2022-10-18T06:34:07.425Z,25.13
2022-10-18T06:36:35.326Z,22.05
2022-10-18T06:39:03.234Z,22.02
2022-10-18T06:41:31.250Z,21.63
2022-10-18T06:44:03.322Z,21.15
2022-10-18T06:46:31.231Z,20.48
2022-10-18T06:49:00.468Z,19.20
2022-10-18T06:51:28.342Z,20.33
2022-10-18T06:54:13.424Z,21.50
2022-10-18T06:56:44.071Z,21.52
2022-10-18T06:59:11.982Z,22.25
2022-10-18T07:01:39.960Z,24.95
2022-10-18T07:04:09.501Z,27.65
2022-10-18T07:06:37.346Z,24.40
2022-10-18T07:09:05.399Z,26.35
2022-10-18T07:11:33.287Z,28.45
2022-10-18T07:14:04.087Z,27.40
2022-10-18T07:16:33.643Z,29.23
2022-10-18T07:19:01.592Z,31.95
2022-10-18T07:21:31.425Z,33.55
2022-10-18T07:23:59.454Z,35.42
2022-10-18T07:26:29.252Z,36.30
2022-10-18T07:29:00.461Z,39.58
2022-10-18T07:31:31.078Z,42.05
2022-10-18T07:33:58.955Z,43.80
2022-10-18T07:36:27.028Z,45.78
2022-10-18T07:38:56.249Z,49.50
2022-10-18T07:41:24.598Z,51.13
2022-10-18T07:43:53.854Z,52.15
2022-10-18T07:46:22.836Z,58.42
2022-10-18T07:48:51.812Z,66.25
2022-10-18T07:51:20.663Z,69.50
2022-10-18T07:53:49.042Z,71.85
2022-10-18T07:56:21.256Z,75.03
2022-10-18T08:01:20.380Z,82.65
2022-10-18T08:03:48.335Z,90.68
2022-10-18T08:06:18.446Z,96.18
2022-10-18T08:08:47.209Z,97.18
2022-10-18T08:11:17.026Z,95.47
2022-10-18T08:13:46.595Z,101.40
2022-10-18T08:16:16.633Z,104.60
2022-10-18T08:18:44.540Z,103.10
2022-10-18T08:21:14.659Z,106.18
2022-10-18T08:23:43.142Z,111.30
2022-10-18T08:26:12.846Z,106.65
2022-10-18T08:28:43.659Z,107.20
2022-10-18T08:31:20.089Z,108.07
2022-10-18T08:33:48.558Z,110.22
2022-10-18T08:36:17.869Z,109.65
2022-10-18T08:38:45.899Z,108.93
2022-10-18T08:41:31.170Z,107.60
2022-10-18T08:44:07.506Z,104.97
2022-10-18T08:46:39.911Z,107.80
2022-10-18T08:49:12.618Z,109.88
2022-10-18T08:51:44.842Z,111.15
2022-10-18T08:54:15.673Z,111.85
2022-10-18T08:56:47.132Z,111.03
2022-10-18T08:59:15.246Z,108.22
2022-10-18T09:01:58.015Z,107.60
2022-10-18T09:04:38.179Z,105.55
2022-10-18T09:07:20.867Z,104.00
2022-10-18T09:12:49.851Z,101.82
2022-10-18T09:15:25.325Z,102.07
2022-10-18T09:18:07.965Z,104.00
2022-10-18T09:20:45.926Z,96.28
2022-10-18T09:23:21.036Z,89.68
2022-10-18T09:25:51.039Z,83.93
2022-10-18T09:28:28.414Z,71.13
2022-10-18T09:31:03.626Z,51.72
2022-10-18T09:33:42.762Z,42.85
2022-10-18T09:36:15.028Z,24.92
2022-10-18T09:38:46.339Z,22.73
2022-10-18T09:41:19.375Z,13.68
2022-10-18T09:43:53.362Z,19.77
2022-10-18T09:46:25.525Z,14.38
2022-10-18T09:48:59.743Z,15.50
2022-10-18T09:51:31.720Z,12.93
2022-10-18T09:54:06.824Z,12.43
2022-10-18T09:56:41.930Z,10.18
2022-10-18T09:59:31.108Z,18.58
2022-10-18T10:01:59.021Z,16.27
2022-10-18T10:04:28.626Z,14.48
2022-10-18T10:07:00.253Z,13.70
2022-10-18T10:09:30.351Z,12.23
2022-10-18T10:11:59.014Z,10.07
2022-10-18T10:14:28.777Z,7.15
2022-10-18T10:16:59.966Z,8.57
2022-10-18T10:19:32.488Z,10.95
2022-10-18T10:22:05.747Z,12.02
2022-10-18T10:24:47.624Z,11.50
2022-10-18T10:27:20.897Z,13.70
2022-10-18T10:29:56.599Z,11.73
2022-10-18T10:32:30.528Z,7.95
2022-10-18T10:35:00.468Z,7.18
2022-10-18T10:37:34.863Z,10.20
2022-10-18T10:40:18.720Z,7.60
2022-10-18T10:43:08.799Z,8.23
2022-10-18T10:45:56.155Z,9.38
2022-10-18T10:48:26.280Z,10.35
2022-10-18T10:51:02.893Z,7.80
2022-10-18T10:53:44.040Z,9.65
2022-10-18T10:56:25.954Z,9.80
2022-10-18T10:58:55.376Z,11.18
2022-10-18T11:01:27.500Z,5.72
2022-10-18T11:03:57.810Z,8.18
2022-10-18T11:06:42.911Z,7.85
2022-10-18T11:09:31.197Z,7.75
2022-10-18T11:12:13.655Z,7.78
2022-10-18T11:17:22.951Z,8.88
2022-10-18T11:20:03.820Z,7.43
2022-10-18T11:22:38.349Z,9.98
2022-10-18T11:25:07.046Z,8.75
2022-10-18T11:27:41.883Z,8.07
2022-10-18T11:30:28.345Z,6.05
2022-10-18T11:33:04.034Z,8.20
2022-10-18T11:35:40.598Z,7.57
2022-10-18T11:38:23.035Z,7.72
2022-10-18T11:44:01.187Z,4.50
2022-10-18T11:46:46.101Z,6.13
2022-10-18T11:49:40.057Z,4.18
2022-10-18T11:52:16.344Z,11.30
2022-10-18T11:55:11.726Z,5.78
2022-10-18T11:57:47.466Z,8.60
2022-10-18T12:00:39.364Z,6.85
2022-10-18T12:03:26.182Z,9.95
2022-10-18T12:05:56.559Z,6.78
2022-10-18T12:08:29.285Z,8.27
2022-10-18T12:11:08.824Z,5.35
2022-10-18T12:13:41.311Z,7.45
2022-10-18T12:16:10.580Z,8.50
2022-10-18T12:18:48.974Z,5.13
2022-10-18T12:21:25.299Z,8.70
2022-10-18T12:23:56.393Z,8.55
2022-10-18T12:26:26.670Z,4.43
2022-10-18T12:29:01.588Z,6.70
2022-10-18T12:31:35.000Z,12.27
2022-10-18T12:34:07.902Z,5.63
2022-10-18T12:36:51.264Z,5.10
2022-10-18T12:39:33.313Z,6.25
2022-10-18T12:42:21.542Z,8.15
2022-10-18T12:44:50.192Z,7.10
2022-10-18T12:47:26.163Z,6.95
2022-10-18T12:49:59.629Z,7.30
2022-10-18T12:52:29.943Z,7.03
2022-10-18T12:55:24.457Z,7.82
2022-10-18T12:58:06.123Z,7.35
2022-10-18T13:00:57.950Z,11.80
2022-10-18T13:03:54.693Z,6.73
2022-10-18T13:06:23.752Z,5.03
2022-10-18T13:09:20.462Z,8.52
2022-10-18T13:11:48.915Z,8.63
2022-10-18T13:14:48.278Z,7.25
2022-10-18T13:17:35.042Z,6.72
2022-10-18T13:20:27.694Z,5.35
2022-10-18T13:23:07.401Z,4.20
2022-10-18T13:25:46.020Z,7.53
2022-10-18T13:28:25.937Z,6.90
2022-10-18T13:30:58.573Z,7.53
2022-10-18T13:33:34.147Z,4.00
2022-10-18T13:36:04.333Z,4.95
2022-10-18T13:38:39.991Z,5.68
2022-10-18T13:41:10.851Z,6.95
2022-10-18T13:44:11.604Z,6.90
2022-10-18T13:47:19.829Z,6.43
2022-10-18T13:50:16.890Z,3.35
2022-10-18T13:53:14.726Z,4.93
2022-10-18T13:56:12.627Z,4.70
2022-10-18T13:59:05.770Z,9.05
2022-10-18T14:01:52.776Z,9.82
2022-10-18T14:05:10.562Z,3.78
2022-10-18T14:07:47.177Z,7.30
2022-10-18T14:10:43.247Z,8.50
2022-10-18T14:13:20.630Z,9.20
2022-10-18T14:15:50.570Z,6.28
2022-10-18T14:18:27.099Z,9.63
2022-10-18T14:21:13.446Z,8.65
2022-10-18T14:23:46.170Z,5.35
2022-10-18T14:26:16.267Z,6.57
2022-10-18T14:29:00.563Z,7.78
2022-10-18T14:31:29.141Z,6.75
2022-10-18T14:33:59.181Z,5.57
2022-10-18T14:36:30.507Z,7.43
2022-10-18T14:39:01.508Z,3.80
2022-10-18T14:41:31.246Z,6.97
2022-10-18T14:44:19.248Z,6.82
2022-10-18T14:46:49.417Z,5.40
2022-10-18T14:49:18.782Z,7.00
2022-10-18T14:51:49.594Z,6.07
2022-10-18T14:54:21.766Z,8.73
2022-10-18T14:56:51.096Z,6.43
2022-10-18T14:59:21.546Z,7.70
2022-10-18T15:01:59.454Z,5.03
2022-10-18T15:04:32.780Z,5.63
2022-10-18T15:07:03.056Z,6.78
2022-10-18T15:09:34.866Z,5.50
2022-10-18T15:12:04.147Z,6.72
2022-10-18T15:14:32.517Z,7.65
2022-10-18T15:17:03.793Z,6.10
2022-10-18T15:19:34.258Z,9.38
2022-10-18T15:22:30.356Z,6.85
2022-10-18T15:25:12.567Z,6.18
2022-10-18T15:30:18.706Z,5.97
2022-10-18T15:32:52.687Z,7.60
2022-10-18T15:35:26.378Z,8.32
2022-10-18T15:37:55.765Z,5.88
2022-10-18T15:40:39.684Z,7.80
2022-10-18T15:43:34.963Z,5.28
2022-10-18T15:46:06.735Z,5.95
2022-10-18T15:48:37.356Z,10.93
2022-10-18T15:51:06.934Z,6.70
2022-10-18T15:53:46.914Z,11.10
2022-10-18T15:56:37.080Z,7.10
2022-10-18T15:59:07.074Z,8.13
2022-10-18T16:01:38.171Z,5.82
2022-10-18T16:04:12.260Z,7.35
2022-10-18T16:06:40.157Z,8.48
2022-10-18T16:09:08.335Z,8.98
2022-10-18T16:11:37.642Z,7.35
2022-10-18T16:14:05.485Z,7.65
2022-10-18T16:16:34.067Z,10.68
2022-10-18T16:19:02.670Z,6.80
2022-10-18T16:21:32.255Z,10.00
2022-10-18T16:24:00.207Z,11.02
2022-10-18T16:26:29.180Z,6.57
2022-10-18T16:28:59.506Z,8.73
2022-10-18T16:31:29.112Z,9.25
2022-10-18T16:33:57.659Z,6.88
2022-10-18T16:36:27.126Z,8.73
2022-10-18T16:38:55.898Z,6.78
2022-10-18T16:41:24.877Z,8.55
2022-10-18T16:43:52.855Z,6.80
2022-10-18T16:46:24.662Z,7.60
2022-10-18T16:48:52.875Z,12.90
2022-10-18T16:51:21.067Z,8.85
2022-10-18T16:53:49.260Z,4.68
2022-10-18T16:56:18.983Z,7.38
2022-10-18T16:58:47.374Z,8.07
2022-10-18T17:01:16.717Z,7.10
2022-10-18T17:03:46.829Z,11.48
2022-10-18T17:06:16.827Z,6.85
2022-10-18T17:08:45.209Z,6.88
2022-10-18T17:11:14.869Z,7.78
2022-10-18T17:13:43.111Z,7.00
2022-10-18T17:16:23.777Z,9.90
2022-10-18T17:18:53.110Z,8.18
2022-10-18T17:21:21.046Z,6.22
2022-10-18T17:23:49.178Z,6.13
2022-10-18T17:26:34.015Z,8.45
2022-10-18T17:29:07.104Z,6.70
2022-10-18T17:31:35.658Z,9.73
2022-10-18T17:34:05.346Z,11.20
2022-10-18T17:36:34.562Z,7.05
2022-10-18T17:39:02.965Z,6.18
2022-10-18T17:41:31.576Z,6.95
2022-10-18T17:43:59.522Z,7.80
2022-10-18T17:46:27.385Z,11.30
2022-10-18T17:48:55.338Z,7.82
2022-10-18T17:51:24.951Z,8.70
2022-10-18T17:53:53.301Z,9.13
2022-10-18T17:56:21.391Z,12.00
2022-10-18T17:58:51.937Z,11.07
2022-10-18T18:01:23.137Z,7.82
2022-10-18T18:03:52.230Z,8.57
2022-10-18T18:06:22.172Z,9.27
2022-10-18T18:08:51.729Z,10.93
2022-10-18T18:11:19.953Z,8.25
2022-10-18T18:13:47.898Z,10.50
2022-10-18T18:16:18.098Z,9.77
2022-10-18T18:18:46.653Z,8.93
2022-10-18T18:21:14.887Z,10.25
2022-10-18T18:23:43.441Z,10.25
2022-10-18T18:26:12.711Z,14.05
2022-10-18T18:28:40.779Z,7.50
2022-10-18T18:31:10.071Z,14.27
2022-10-18T18:33:38.450Z,9.90
2022-10-18T18:36:07.239Z,13.90
2022-10-18T18:38:37.117Z,11.57
2022-10-18T18:41:06.873Z,9.95
2022-10-18T18:43:37.401Z,11.95
2022-10-18T18:46:05.556Z,10.73
2022-10-18T18:48:37.317Z,14.50
2022-10-18T18:51:06.833Z,14.98
2022-10-18T18:53:35.066Z,12.02
2022-10-18T18:56:10.339Z,9.75
2022-10-18T18:58:45.864Z,11.77
2022-10-18T19:01:17.326Z,14.07
2022-10-18T19:03:45.904Z,11.77
2022-10-18T19:06:16.478Z,10.30
2022-10-18T19:08:46.857Z,13.70
2022-10-18T19:11:16.669Z,13.05
2022-10-18T19:13:46.635Z,9.55
2022-10-18T19:16:22.590Z,12.88
2022-10-18T19:18:55.851Z,13.52
2022-10-18T19:21:25.056Z,11.95
2022-10-18T19:23:53.521Z,21.63
2022-10-18T19:26:33.683Z,15.32
2022-10-18T19:29:05.522Z,11.60
2022-10-18T19:31:34.898Z,12.30
2022-10-18T19:34:03.576Z,14.88
2022-10-18T19:36:31.835Z,13.85
2022-10-18T19:39:00.190Z,15.20
2022-10-18T19:41:29.242Z,15.10
2022-10-18T19:43:57.754Z,10.32
2022-10-18T19:46:27.191Z,11.18
2022-10-18T19:48:55.108Z,12.57
2022-10-18T19:51:27.007Z,12.43
2022-10-18T19:53:56.485Z,12.13
2022-10-18T19:56:25.822Z,18.38
2022-10-18T19:58:53.786Z,15.90
2022-10-18T20:01:21.906Z,13.70
2022-10-18T20:03:51.341Z,15.82
2022-10-18T20:06:19.783Z,12.57
2022-10-18T20:08:48.083Z,13.02
2022-10-18T20:11:18.234Z,20.45
2022-10-18T20:13:46.263Z,14.38
2022-10-18T20:16:16.321Z,14.57
2022-10-18T20:18:44.252Z,14.10
2022-10-18T20:21:15.302Z,14.50
2022-10-18T20:23:44.687Z,18.58
2022-10-18T20:26:18.250Z,15.48
2022-10-18T20:28:55.778Z,12.52
2022-10-18T20:31:25.373Z,14.13
2022-10-18T20:33:56.337Z,11.35
2022-10-18T20:36:26.178Z,14.15
2022-10-18T20:38:54.878Z,13.55
2022-10-18T20:41:24.651Z,12.48
2022-10-18T20:43:53.532Z,13.35
2022-10-18T20:46:22.015Z,14.10
2022-10-18T20:48:51.225Z,12.93
2022-10-18T20:51:19.634Z,10.48
2022-10-18T20:53:49.014Z,15.18
2022-10-18T20:56:20.144Z,9.43
2022-10-18T20:58:51.054Z,10.73
2022-10-18T21:01:20.429Z,12.98
2022-10-18T21:03:49.622Z,10.15
2022-10-18T21:06:18.982Z,13.70
2022-10-18T21:08:52.650Z,13.30
2022-10-18T21:11:20.570Z,13.23
2022-10-18T21:13:51.704Z,14.18
2022-10-18T21:16:19.700Z,12.75
2022-10-18T21:18:48.017Z,10.98
2022-10-18T21:21:17.124Z,13.52
2022-10-18T21:23:45.975Z,11.52
2022-10-18T21:26:17.513Z,15.95
2022-10-18T21:28:45.827Z,13.53
2022-10-18T21:31:15.952Z,18.52
2022-10-18T21:33:44.700Z,24.40
2022-10-18T21:36:13.306Z,12.18
2022-10-18T21:38:41.426Z,19.77
2022-10-18T21:41:10.802Z,17.05
2022-10-18T21:43:42.941Z,13.70
2022-10-18T21:46:11.351Z,16.80
2022-10-18T21:48:43.954Z,15.45
2022-10-18T21:51:12.330Z,14.32
2022-10-18T21:53:40.670Z,14.32
2022-10-18T21:56:10.235Z,19.48
2022-10-18T21:58:38.554Z,16.52
2022-10-18T22:01:10.477Z,19.13
2022-10-18T22:03:38.759Z,21.15
2022-10-18T22:06:12.827Z,23.30
2022-10-18T22:08:40.840Z,19.27
2022-10-18T22:11:09.267Z,19.55
2022-10-18T22:13:37.156Z,18.00
2022-10-18T22:16:06.786Z,14.95
2022-10-18T22:18:36.647Z,15.73
2022-10-18T22:21:06.519Z,21.95
2022-10-18T22:23:35.326Z,15.77
2022-10-18T22:26:04.544Z,15.30
2022-10-18T22:28:32.629Z,19.70
2022-10-18T22:31:00.905Z,20.75
2022-10-18T22:33:28.900Z,18.90
2022-10-18T22:35:58.293Z,16.45
2022-10-18T22:38:26.194Z,18.13
2022-10-18T22:40:54.097Z,15.70
2022-10-18T22:43:21.946Z,16.75
2022-10-18T22:45:49.802Z,17.30
2022-10-18T22:48:17.694Z,22.33
2022-10-18T22:50:45.565Z,15.15
2022-10-18T22:53:14.917Z,14.20
2022-10-18T22:55:42.767Z,18.38
2022-10-18T22:58:10.634Z,14.05
2022-10-18T23:00:39.618Z,21.08
2022-10-18T23:03:07.542Z,11.93
2022-10-18T23:05:38.391Z,19.13
2022-10-18T23:08:06.438Z,15.90
2022-10-18T23:10:37.402Z,13.73
2022-10-18T23:13:05.942Z,11.43
2022-10-18T23:15:34.019Z,13.60
2022-10-18T23:18:02.378Z,13.60
2022-10-18T23:20:30.261Z,13.20
2022-10-18T23:22:58.193Z,16.83
2022-10-18T23:25:27.136Z,15.35
2022-10-18T23:27:57.723Z,13.35
2022-10-18T23:30:25.581Z,14.52
2022-10-18T23:32:53.462Z,12.10
2022-10-18T23:35:21.429Z,17.67
2022-10-18T23:37:49.292Z,12.63
2022-10-18T23:40:17.347Z,13.48
2022-10-18T23:42:45.219Z,12.20
2022-10-18T23:45:14.421Z,12.95
2022-10-18T23:47:42.285Z,17.75
2022-10-18T23:50:10.739Z,11.90
2022-10-18T23:52:38.611Z,14.88
2022-10-18T23:55:07.682Z,13.52
2022-10-18T23:57:35.941Z,18.73
